createdAt,value
2023-01-11T00:01:30.815Z,99912.88
2023-01-11T00:03:58.976Z,99917.28
2023-01-11T00:06:25.812Z,99914.38
2023-01-11T00:08:55.785Z,99911.00
2023-01-11T00:11:23.213Z,99910.44
2023-01-11T00:13:51.691Z,99912.75
2023-01-11T00:16:19.814Z,99915.81
2023-01-11T00:18:46.643Z,99916.56
2023-01-11T00:21:14.511Z,99914.47
2023-01-11T00:23:41.283Z,99905.88
2023-01-11T00:26:13.175Z,99898.78
2023-01-11T00:28:41.684Z,99893.59
2023-01-11T00:31:09.234Z,99892.50
2023-01-11T00:33:36.062Z,99885.47
2023-01-11T00:36:03.090Z,99884.41
2023-01-11T00:38:31.931Z,99883.63
2023-01-11T00:40:58.752Z,99890.94
2023-01-11T00:43:25.495Z,99892.97
2023-01-11T00:45:52.308Z,99899.13
2023-01-11T00:48:19.415Z,99908.31
2023-01-11T00:50:47.265Z,99905.38
2023-01-11T00:53:14.052Z,99900.91
2023-01-11T00:55:43.807Z,99907.59
2023-01-11T00:58:11.159Z,99898.31
2023-01-11T01:00:38.451Z,99904.69
2023-01-11T01:03:06.320Z,99910.94
2023-01-11T01:05:33.053Z,99904.38
2023-01-11T01:08:01.103Z,99903.06
2023-01-11T01:10:31.758Z,99897.59
2023-01-11T01:13:00.112Z,99894.22
2023-01-11T01:15:26.944Z,99899.69
2023-01-11T01:17:55.241Z,99898.25
2023-01-11T01:20:23.654Z,99891.94
2023-01-11T01:22:50.589Z,99895.44
2023-01-11T01:25:18.637Z,99892.53
2023-01-11T01:27:45.386Z,99888.81
2023-01-11T01:30:14.358Z,99890.84
2023-01-11T01:32:41.184Z,99888.03
2023-01-11T01:35:09.611Z,99879.59
2023-01-11T01:37:37.681Z,99874.09
2023-01-11T01:40:05.261Z,99876.91
2023-01-11T01:42:32.107Z,99878.03
2023-01-11T01:45:25.670Z,99887.88
2023-01-11T01:48:00.473Z,99886.78
2023-01-11T01:50:37.888Z,99880.53
2023-01-11T01:53:14.365Z,99881.47
2023-01-11T01:59:10.438Z,99873.03
2023-01-11T02:01:39.415Z,99879.06
2023-01-11T02:04:11.848Z,99882.19
2023-01-11T02:06:41.639Z,99885.06
2023-01-11T02:09:23.763Z,99878.91
2023-01-11T02:11:53.949Z,99881.31
2023-01-11T02:14:21.628Z,99880.13
2023-01-11T02:16:51.736Z,99866.91
2023-01-11T02:19:35.664Z,99863.81
2023-01-11T02:22:25.811Z,99854.84
2023-01-11T02:25:10.976Z,99864.16
2023-01-11T02:28:02.786Z,99864.25
2023-01-11T02:30:57.689Z,99865.06
2023-01-11T02:33:54.852Z,99853.56
2023-01-11T02:36:41.237Z,99852.31
2023-01-11T02:39:45.781Z,99852.47
2023-01-11T02:42:37.363Z,99843.91
2023-01-11T02:45:16.794Z,99842.00
2023-01-11T02:48:22.352Z,99839.31
2023-01-11T02:51:05.675Z,99840.75
2023-01-11T02:53:48.059Z,99839.13
2023-01-11T02:56:21.138Z,99840.16
2023-01-11T02:58:51.387Z,99842.31
2023-01-11T03:01:19.642Z,99835.41
2023-01-11T03:03:47.771Z,99838.81
2023-01-11T03:06:21.070Z,99828.25
2023-01-11T03:09:10.672Z,99831.19
2023-01-11T03:11:55.806Z,99830.75
2023-01-11T03:18:41.782Z,99840.91
2023-01-11T03:21:28.519Z,99843.50
2023-01-11T03:24:26.502Z,99837.25
2023-01-11T03:27:17.727Z,99832.06
2023-01-11T03:30:11.858Z,99822.91
2023-01-11T03:32:48.517Z,99819.19
2023-01-11T03:41:43.610Z,99830.56
2023-01-11T03:44:16.958Z,99821.63
2023-01-11T03:46:51.783Z,99830.56
2023-01-11T03:49:25.658Z,99828.41
2023-01-11T03:51:55.725Z,99827.84
2023-01-11T03:54:26.450Z,99823.44
2023-01-11T03:57:10.636Z,99821.63
2023-01-11T03:59:39.413Z,99824.91
2023-01-11T04:02:19.079Z,99827.09
2023-01-11T04:04:46.617Z,99824.38
2023-01-11T04:07:15.229Z,99827.47
2023-01-11T04:09:42.782Z,99820.25
2023-01-11T04:12:11.385Z,99819.03
2023-01-11T04:14:41.793Z,99818.69
2023-01-11T04:17:10.183Z,99809.53
2023-01-11T04:20:01.897Z,99813.94
2023-01-11T04:22:29.803Z,99814.28
2023-01-11T04:24:56.443Z,99823.09
2023-01-11T04:27:23.811Z,99817.13
2023-01-11T04:29:50.541Z,99820.25
2023-01-11T04:32:17.712Z,99816.31
2023-01-11T04:34:45.216Z,99818.81
2023-01-11T04:37:12.164Z,99815.31
2023-01-11T04:39:39.062Z,99813.84
2023-01-11T04:42:06.838Z,99814.38
2023-01-11T04:44:34.218Z,99810.13
2023-01-11T04:47:00.942Z,99804.81
2023-01-11T04:49:28.284Z,99803.34
2023-01-11T04:51:56.018Z,99794.97
2023-01-11T04:54:24.817Z,99794.59
2023-01-11T04:56:51.675Z,99788.91
2023-01-11T04:59:18.418Z,99793.78
2023-01-11T05:01:45.603Z,99781.56
2023-01-11T05:04:13.593Z,99786.84
2023-01-11T05:06:42.289Z,99781.91
2023-01-11T05:09:15.963Z,99771.91
2023-01-11T05:11:45.928Z,99772.06
2023-01-11T05:14:13.570Z,99766.75
2023-01-11T05:16:41.259Z,99770.25
2023-01-11T05:19:11.822Z,99762.50
2023-01-11T05:21:41.342Z,99770.06
2023-01-11T05:24:12.979Z,99764.53
2023-01-11T05:26:42.435Z,99772.44
2023-01-11T05:29:16.833Z,99770.50
2023-01-11T05:31:43.888Z,99780.00
2023-01-11T05:34:12.999Z,99783.53
2023-01-11T05:36:42.456Z,99786.13
2023-01-11T05:39:10.681Z,99790.72
2023-01-11T05:41:37.618Z,99784.25
2023-01-11T05:44:04.831Z,99790.84
2023-01-11T05:46:33.503Z,99786.16
2023-01-11T05:49:01.975Z,99788.50
2023-01-11T05:51:53.936Z,99781.13
2023-01-11T05:54:23.009Z,99779.59
2023-01-11T05:56:49.756Z,99783.28
2023-01-11T05:59:16.573Z,99790.22
2023-01-11T06:01:43.555Z,99782.22
2023-01-11T06:04:11.310Z,99781.22
2023-01-11T06:09:31.462Z,99779.16
2023-01-11T06:11:58.231Z,99785.41
2023-01-11T06:14:25.094Z,99782.25
2023-01-11T06:22:59.977Z,99778.88
2023-01-11T06:25:28.266Z,99780.41
2023-01-11T06:27:59.679Z,99779.69
2023-01-11T06:30:28.178Z,99772.22
2023-01-11T06:32:55.034Z,99779.66
2023-01-11T06:35:22.281Z,99779.84
2023-01-11T06:37:50.888Z,99783.22
2023-01-11T06:40:17.726Z,99787.41
2023-01-11T06:42:46.278Z,99780.31
2023-01-11T06:45:15.945Z,99791.38
2023-01-11T06:47:42.780Z,99785.78
2023-01-11T06:50:10.307Z,99788.53
2023-01-11T06:52:37.938Z,99791.88
2023-01-11T06:55:05.335Z,99794.13
2023-01-11T06:57:32.057Z,99786.50
2023-01-11T06:59:58.959Z,99801.56
2023-01-11T07:02:25.735Z,99796.41
2023-01-11T07:04:56.296Z,99799.13
2023-01-11T07:07:23.134Z,99802.84
2023-01-11T07:09:49.917Z,99802.63
2023-01-11T07:12:16.627Z,99797.16
2023-01-11T07:17:36.550Z,99804.94
2023-01-11T07:20:04.669Z,99801.06
2023-01-11T07:22:34.816Z,99794.34
2023-01-11T07:25:03.861Z,99792.72
2023-01-11T07:27:30.775Z,99789.59
2023-01-11T07:29:57.713Z,99790.44
2023-01-11T07:32:24.990Z,99799.50
2023-01-11T07:34:51.685Z,99794.09
2023-01-11T07:37:28.346Z,99799.34
2023-01-11T07:39:56.178Z,99797.00
2023-01-11T07:42:22.950Z,99799.50
2023-01-11T07:44:50.409Z,99798.78
2023-01-11T07:47:17.179Z,99790.94
2023-01-11T07:52:30.536Z,99799.00
2023-01-11T07:54:57.253Z,99789.53
2023-01-11T07:57:25.369Z,99793.84
2023-01-11T07:59:52.177Z,99801.75
2023-01-11T08:02:43.710Z,99793.13
2023-01-11T08:05:10.762Z,99788.75
2023-01-11T08:07:37.501Z,99789.25
2023-01-11T08:10:09.171Z,99792.88
2023-01-11T08:12:51.664Z,99782.63
2023-01-11T08:15:18.583Z,99773.53
2023-01-11T08:17:45.374Z,99784.78
2023-01-11T08:20:13.412Z,99775.94
2023-01-11T08:22:40.286Z,99784.72
2023-01-11T08:25:07.965Z,99780.00
2023-01-11T08:27:35.411Z,99771.09
2023-01-11T08:30:02.123Z,99782.38
2023-01-11T08:32:30.031Z,99778.06
2023-01-11T08:34:56.783Z,99782.59
2023-01-11T08:37:25.055Z,99784.84
2023-01-11T08:39:51.826Z,99788.66
2023-01-11T08:42:20.407Z,99794.88
2023-01-11T08:44:47.929Z,99797.34
2023-01-11T08:47:15.396Z,99789.91
2023-01-11T08:49:43.019Z,99796.00
2023-01-11T08:52:13.841Z,99792.72
2023-01-11T08:54:41.868Z,99788.09
2023-01-11T08:57:09.072Z,99789.31
2023-01-11T08:59:37.333Z,99791.78
2023-01-11T09:02:05.953Z,99790.06
2023-01-11T09:04:32.972Z,99783.94
2023-01-11T09:07:00.361Z,99789.78
2023-01-11T09:09:51.875Z,99793.16
2023-01-11T09:12:22.298Z,99798.22
2023-01-11T09:14:49.366Z,99785.63
2023-01-11T09:17:16.953Z,99790.44
2023-01-11T09:19:44.182Z,99782.31
2023-01-11T09:22:11.908Z,99774.31
2023-01-11T09:24:38.759Z,99771.47
2023-01-11T09:27:05.639Z,99775.66
2023-01-11T09:29:34.968Z,99771.00
2023-01-11T09:32:03.386Z,99761.72
2023-01-11T09:34:30.088Z,99769.38
2023-01-11T09:36:57.938Z,99770.47
2023-01-11T09:39:24.744Z,99764.59
2023-01-11T09:42:22.889Z,99767.41
2023-01-11T09:44:56.166Z,99766.78
2023-01-11T09:47:29.299Z,99756.16
2023-01-11T09:50:00.443Z,99748.81
2023-01-11T09:52:35.895Z,99746.84
2023-01-11T09:55:04.119Z,99745.91
2023-01-11T09:57:58.019Z,99739.84
2023-01-11T10:00:50.721Z,99735.88
2023-01-11T10:03:51.896Z,99738.41
2023-01-11T10:06:32.786Z,99722.13
2023-01-11T10:18:29.666Z,99721.03
2023-01-11T10:24:29.799Z,99709.53
2023-01-11T10:27:04.941Z,99721.06
2023-01-11T10:29:40.569Z,99709.66
2023-01-11T10:32:33.848Z,99701.34
2023-01-11T10:35:36.912Z,99713.34
2023-01-11T10:38:10.863Z,99712.34
2023-01-11T10:40:48.506Z,99701.44
2023-01-11T10:43:19.912Z,99705.41
2023-01-11T10:45:54.333Z,99701.50
2023-01-11T10:48:40.881Z,99700.72
2023-01-11T10:51:19.637Z,99696.41
2023-01-11T10:53:59.012Z,99699.50
2023-01-11T10:57:08.042Z,99697.16
2023-01-11T11:00:01.759Z,99695.88
2023-01-11T11:02:49.850Z,99691.44
2023-01-11T11:05:44.748Z,99695.88
2023-01-11T11:08:18.409Z,99678.94
2023-01-11T11:11:05.593Z,99679.75
2023-01-11T11:14:01.100Z,99676.13
2023-01-11T11:16:44.945Z,99667.50
2023-01-11T11:19:17.129Z,99667.03
2023-01-11T11:21:44.914Z,99659.25
2023-01-11T11:24:21.409Z,99651.97
2023-01-11T11:26:55.894Z,99653.81
2023-01-11T11:29:26.330Z,99643.38
2023-01-11T11:31:53.423Z,99636.06
2023-01-11T11:34:22.242Z,99627.00
2023-01-11T11:36:53.030Z,99622.28
2023-01-11T11:39:29.715Z,99631.44
2023-01-11T11:45:14.619Z,99629.41
2023-01-11T11:47:42.464Z,99627.59
2023-01-11T11:50:43.265Z,99625.53
2023-01-11T11:53:22.380Z,99619.81
2023-01-11T11:55:53.001Z,99619.31
2023-01-11T11:58:23.980Z,99614.63
2023-01-11T12:01:36.901Z,99609.97
2023-01-11T12:04:14.207Z,99607.88
2023-01-11T12:06:42.928Z,99613.88
2023-01-11T12:09:38.178Z,99599.56
2023-01-11T12:12:20.792Z,99601.66
2023-01-11T12:15:16.119Z,99599.06
2023-01-11T12:17:43.959Z,99591.78
2023-01-11T12:20:22.688Z,99592.31
2023-01-11T12:23:21.609Z,99585.03
2023-01-11T12:25:57.472Z,99581.16
2023-01-11T12:28:39.568Z,99578.03
2023-01-11T12:31:21.094Z,99570.72
2023-01-11T12:34:39.357Z,99561.88
2023-01-11T12:37:12.255Z,99568.66
2023-01-11T12:39:52.188Z,99564.50
2023-01-11T12:42:25.464Z,99561.41
2023-01-11T12:45:03.549Z,99550.97
2023-01-11T12:47:42.325Z,99548.34
2023-01-11T12:50:25.585Z,99538.44
2023-01-11T12:53:34.879Z,99532.19
2023-01-11T12:56:28.048Z,99527.75
2023-01-11T12:59:20.547Z,99516.28
2023-01-11T13:05:37.549Z,99524.09
2023-01-11T13:08:30.863Z,99519.66
2023-01-11T13:14:42.888Z,99521.53
2023-01-11T13:17:10.281Z,99518.66
2023-01-11T13:19:43.915Z,99523.59
2023-01-11T13:22:18.014Z,99512.94
2023-01-11T13:24:50.888Z,99514.50
2023-01-11T13:27:22.295Z,99512.94
2023-01-11T13:29:53.898Z,99510.84
2023-01-11T13:32:28.361Z,99514.25
2023-01-11T13:35:20.046Z,99517.38
2023-01-11T13:38:15.688Z,99521.53
2023-01-11T13:44:06.430Z,99515.56
2023-01-11T13:47:09.579Z,99516.34
2023-01-11T13:49:51.015Z,99514.25
2023-01-11T13:52:39.340Z,99514.25
2023-01-11T13:55:25.105Z,99514.78
2023-01-11T13:57:59.604Z,99516.34
2023-01-11T14:00:38.225Z,99512.44
2023-01-11T14:03:37.721Z,99516.88
2023-01-11T14:06:35.211Z,99516.13
2023-01-11T14:09:20.638Z,99520.28
2023-01-11T14:12:05.666Z,99514.28
2023-01-11T14:14:38.474Z,99525.22
2023-01-11T14:17:05.151Z,99515.84
2023-01-11T14:20:01.515Z,99515.31
2023-01-11T14:22:37.463Z,99519.78
2023-01-11T14:25:14.159Z,99517.16
2023-01-11T14:28:08.613Z,99529.44
2023-01-11T14:30:41.216Z,99516.13
2023-01-11T14:33:26.586Z,99520.31
2023-01-11T14:36:23.934Z,99518.22
2023-01-11T14:39:19.667Z,99505.94
2023-01-11T14:41:55.415Z,99506.47
2023-01-11T14:44:59.612Z,99490.81
2023-01-11T14:47:52.343Z,99487.44
2023-01-11T14:50:43.521Z,99470.97
2023-01-11T14:53:19.138Z,99467.56
2023-01-11T14:55:46.387Z,99476.44
2023-01-11T15:01:26.008Z,99484.53
2023-01-11T15:03:56.141Z,99482.19
2023-01-11T15:06:25.021Z,99473.06
2023-01-11T15:08:55.849Z,99470.19
2023-01-11T15:11:40.276Z,99466.53
2023-01-11T15:14:36.815Z,99467.31
2023-01-11T15:17:04.940Z,99472.00
2023-01-11T15:19:35.591Z,99466.53
2023-01-11T15:22:08.955Z,99462.09
2023-01-11T15:24:41.820Z,99457.94
2023-01-11T15:27:28.058Z,99462.09
2023-01-11T15:29:58.034Z,99456.09
2023-01-11T15:32:35.065Z,99448.78
2023-01-11T15:35:23.243Z,99454.28
2023-01-11T15:38:14.322Z,99459.22
2023-01-11T15:40:43.309Z,99463.41
2023-01-11T15:43:37.887Z,99460.00
2023-01-11T15:46:33.832Z,99453.22
2023-01-11T15:49:34.929Z,99456.63
2023-01-11T15:52:05.244Z,99456.63
2023-01-11T15:54:35.435Z,99457.38
2023-01-11T15:57:39.027Z,99458.19
2023-01-11T16:00:31.980Z,99447.75
2023-01-11T16:03:18.768Z,99450.09
2023-01-11T16:06:27.107Z,99442.25
2023-01-11T16:09:15.405Z,99445.66
2023-01-11T16:12:15.799Z,99450.88
2023-01-11T16:15:10.623Z,99452.44
2023-01-11T16:17:41.393Z,99447.75
2023-01-11T16:20:20.187Z,99449.31
2023-01-11T16:22:53.611Z,99452.69
2023-01-11T16:25:23.460Z,99451.41
2023-01-11T16:27:55.915Z,99445.13
2023-01-11T16:30:23.130Z,99442.78
2023-01-11T16:32:50.218Z,99437.31
2023-01-11T16:35:26.050Z,99447.75
2023-01-11T16:38:25.931Z,99442.00
2023-01-11T16:41:18.747Z,99440.44
2023-01-11T16:46:46.641Z,99436.78
2023-01-11T16:49:18.381Z,99445.66
2023-01-11T16:52:35.056Z,99439.38
2023-01-11T16:55:11.029Z,99435.22
2023-01-11T16:57:43.948Z,99444.38
2023-01-11T17:00:25.528Z,99441.50
2023-01-11T17:03:16.516Z,99439.91
2023-01-11T17:06:14.956Z,99435.22
2023-01-11T17:08:47.912Z,99443.84
2023-01-11T17:11:41.732Z,99439.91
2023-01-11T17:14:28.047Z,99429.47
2023-01-11T17:17:00.192Z,99436.28
2023-01-11T17:19:31.276Z,99436.78
2023-01-11T17:22:06.469Z,99440.16
2023-01-11T17:24:48.102Z,99442.78
2023-01-11T17:27:22.576Z,99440.16
2023-01-11T17:29:53.890Z,99444.63
2023-01-11T17:32:45.597Z,99440.97
2023-01-11T17:35:19.055Z,99443.84
2023-01-11T17:37:48.623Z,99441.50
2023-01-11T17:40:36.858Z,99442.00
2023-01-11T17:43:22.603Z,99439.13
2023-01-11T17:45:50.478Z,99446.69
2023-01-11T17:48:17.441Z,99446.72
2023-01-11T17:50:53.571Z,99439.94
2023-01-11T17:53:32.467Z,99448.28
2023-01-11T17:56:03.864Z,99448.78
2023-01-11T17:58:32.854Z,99442.53
2023-01-11T18:01:08.979Z,99437.31
2023-01-11T18:03:54.506Z,99438.63
2023-01-11T18:06:39.936Z,99433.91
2023-01-11T18:09:19.591Z,99428.69
2023-01-11T18:11:52.594Z,99432.88
2023-01-11T18:14:30.348Z,99435.22
2023-01-11T18:17:01.276Z,99434.16
2023-01-11T18:19:35.608Z,99437.31
2023-01-11T18:22:04.946Z,99441.75
2023-01-11T18:24:34.338Z,99446.16
2023-01-11T18:27:18.080Z,99443.56
2023-01-11T18:30:32.977Z,99452.16
2023-01-11T18:33:11.901Z,99446.72
2023-01-11T18:35:44.356Z,99440.72
2023-01-11T18:38:23.317Z,99453.47
2023-01-11T18:40:53.475Z,99442.00
2023-01-11T18:43:29.426Z,99440.44
2023-01-11T18:45:56.804Z,99445.38
2023-01-11T18:48:25.504Z,99445.13
2023-01-11T18:53:44.712Z,99451.09
2023-01-11T18:56:11.675Z,99451.09
2023-01-11T18:58:38.988Z,99451.09
2023-01-11T19:01:14.088Z,99444.06
2023-01-11T19:03:43.671Z,99446.16
2023-01-11T19:06:15.704Z,99443.31
2023-01-11T19:08:43.382Z,99449.53
2023-01-11T19:11:11.872Z,99445.66
2023-01-11T19:13:38.987Z,99446.41
2023-01-11T19:16:08.560Z,99433.91
2023-01-11T19:18:35.835Z,99437.28
2023-01-11T19:21:04.834Z,99438.34
2023-01-11T19:23:33.055Z,99441.47
2023-01-11T19:26:02.806Z,99437.81
2023-01-11T19:28:31.644Z,99440.19
2023-01-11T19:30:59.003Z,99442.25
2023-01-11T19:33:26.326Z,99445.66
2023-01-11T19:35:53.688Z,99440.69
2023-01-11T19:38:20.754Z,99449.53
2023-01-11T19:40:50.444Z,99442.78
2023-01-11T19:43:17.933Z,99454.53
2023-01-11T19:45:45.359Z,99456.34
2023-01-11T19:48:12.255Z,99459.22
2023-01-11T19:50:39.237Z,99459.97
2023-01-11T19:53:06.225Z,99450.09
2023-01-11T19:55:33.040Z,99457.13
2023-01-11T19:58:00.503Z,99454.00
2023-01-11T20:00:29.743Z,99454.25
2023-01-11T20:02:58.449Z,99464.69
2023-01-11T20:05:25.428Z,99464.16
2023-01-11T20:07:52.357Z,99467.53
2023-01-11T20:10:19.532Z,99472.00
2023-01-11T20:12:47.860Z,99468.34
2023-01-11T20:15:15.550Z,99475.91
2023-01-11T20:17:42.810Z,99467.53
2023-01-11T20:20:10.855Z,99480.09
2023-01-11T20:22:37.807Z,99471.22
2023-01-11T20:25:05.676Z,99484.78
2023-01-11T20:27:32.944Z,99484.00
2023-01-11T20:30:01.694Z,99484.00
2023-01-11T20:32:41.057Z,99476.94
2023-01-11T20:35:11.939Z,99488.94
2023-01-11T20:37:39.370Z,99492.09
2023-01-11T20:40:07.387Z,99495.22
2023-01-11T20:42:35.606Z,99501.47
2023-01-11T20:45:04.523Z,99508.00
2023-01-11T20:47:32.564Z,99509.06
2023-01-11T20:49:59.480Z,99515.06
2023-01-11T20:52:26.655Z,99504.88
2023-01-11T20:54:54.076Z,99500.19
2023-01-11T20:57:22.009Z,99505.16
2023-01-11T20:59:49.449Z,99506.44
2023-01-11T21:02:16.185Z,99514.28
2023-01-11T21:04:46.891Z,99511.41
2023-01-11T21:07:17.447Z,99519.47
2023-01-11T21:09:44.356Z,99528.88
2023-01-11T21:12:11.400Z,99517.13
2023-01-11T21:14:38.110Z,99518.69
2023-01-11T21:17:05.924Z,99516.63
2023-01-11T21:19:36.340Z,99515.66
2023-01-11T21:22:03.202Z,99508.19
2023-01-11T21:24:30.429Z,99509.38
2023-01-11T21:26:57.594Z,99523.59
2023-01-11T21:29:25.381Z,99509.22
2023-01-11T21:31:52.376Z,99518.31
2023-01-11T21:34:20.897Z,99516.94
2023-01-11T21:36:48.513Z,99519.81
2023-01-11T21:39:17.015Z,99526.59
2023-01-11T21:41:47.966Z,99526.06
2023-01-11T21:44:16.445Z,99522.81
2023-01-11T21:46:45.003Z,99523.34
2023-01-11T21:49:13.911Z,99528.59
2023-01-11T21:51:42.009Z,99534.84
2023-01-11T21:54:12.859Z,99528.28
2023-01-11T21:56:40.308Z,99536.16
2023-01-11T21:59:09.012Z,99529.84
2023-01-11T22:01:36.063Z,99538.28
2023-01-11T22:04:07.623Z,99540.84
2023-01-11T22:06:40.094Z,99543.47
2023-01-11T22:09:09.616Z,99538.22
2023-01-11T22:11:37.867Z,99542.72
2023-01-11T22:14:05.726Z,99547.16
2023-01-11T22:16:33.528Z,99545.09
2023-01-11T22:19:01.681Z,99556.13
2023-01-11T22:21:30.898Z,99556.97
2023-01-11T22:23:58.890Z,99565.59
2023-01-11T22:26:54.981Z,99567.44
2023-01-11T22:29:25.386Z,99584.97
2023-01-11T22:31:53.563Z,99576.56
2023-01-11T22:34:22.364Z,99584.19
2023-01-11T22:37:15.050Z,99589.97
2023-01-11T22:39:42.787Z,99601.78
2023-01-11T22:42:09.559Z,99596.53
2023-01-11T22:45:03.095Z,99595.75
2023-01-11T22:47:54.983Z,99599.69
2023-01-11T22:50:23.151Z,99604.69
2023-01-11T22:52:49.932Z,99602.56
2023-01-11T22:55:17.327Z,99598.91
2023-01-11T22:57:45.954Z,99599.94
2023-01-11T23:00:13.356Z,99609.06
2023-01-11T23:02:40.208Z,99602.75
2023-01-11T23:05:07.958Z,99604.59
2023-01-11T23:07:38.373Z,99608.00
2023-01-11T23:10:05.534Z,99613.44
2023-01-11T23:12:34.049Z,99614.69
2023-01-11T23:15:00.824Z,99617.34
2023-01-11T23:17:27.649Z,99616.34
2023-01-11T23:19:54.660Z,99614.72
2023-01-11T23:22:21.459Z,99612.13
2023-01-11T23:24:48.294Z,99610.03
2023-01-11T23:27:15.368Z,99608.97
2023-01-11T23:29:42.959Z,99621.28
2023-01-11T23:32:09.852Z,99620.44
2023-01-11T23:34:37.909Z,99614.19
2023-01-11T23:37:08.330Z,99622.06
2023-01-11T23:39:38.961Z,99626.25
2023-01-11T23:42:06.371Z,99616.03
2023-01-11T23:44:33.535Z,99627.31
2023-01-11T23:47:00.405Z,99622.09
2023-01-11T23:49:29.562Z,99617.91
2023-01-11T23:51:56.907Z,99619.47
2023-01-11T23:54:30.913Z,99622.59
2023-01-11T23:57:00.143Z,99619.19
2023-01-11T23:59:27.120Z,99621.03
